createdAt,value
2023-05-06T00:01:22.595Z,8.77
2023-05-06T00:03:50.146Z,17.53
2023-05-06T00:06:17.841Z,9.57
2023-05-06T00:08:46.795Z,8.73
2023-05-06T00:11:15.455Z,8.90
2023-05-06T00:13:43.302Z,8.80
2023-05-06T00:16:10.774Z,9.37
2023-05-06T00:18:38.155Z,8.30
2023-05-06T00:21:05.706Z,8.67
2023-05-06T00:23:33.469Z,9.60
2023-05-06T00:26:01.068Z,9.23
2023-05-06T00:28:29.953Z,9.73
2023-05-06T00:30:57.732Z,10.77
2023-05-06T00:33:25.530Z,8.77
2023-05-06T00:35:53.086Z,9.30
2023-05-06T00:38:20.784Z,9.03
2023-05-06T00:40:49.528Z,9.47
2023-05-06T00:43:17.922Z,9.40
2023-05-06T00:45:45.519Z,8.40
2023-05-06T00:48:13.842Z,9.27
2023-05-06T00:50:41.628Z,10.07
2023-05-06T00:53:10.682Z,11.83
2023-05-06T00:55:40.352Z,10.63
2023-05-06T00:58:08.892Z,12.70
2023-05-06T01:00:36.315Z,11.27
2023-05-06T01:03:03.713Z,9.70
2023-05-06T01:05:49.237Z,10.13
2023-05-06T01:08:26.711Z,12.57
2023-05-06T01:10:59.748Z,11.13
2023-05-06T01:13:46.487Z,13.97
2023-05-06T01:16:16.776Z,11.00
2023-05-06T01:18:45.585Z,34.87
2023-05-06T01:21:14.540Z,36.10
2023-05-06T01:23:52.148Z,13.37
2023-05-06T01:26:20.920Z,10.90
2023-05-06T01:28:49.515Z,9.97
2023-05-06T01:31:28.797Z,9.23
2023-05-06T01:34:11.512Z,8.43
2023-05-06T01:36:57.753Z,8.90
2023-05-06T01:39:26.225Z,9.20
2023-05-06T01:41:57.757Z,10.77
2023-05-06T01:44:26.689Z,14.13
2023-05-06T01:46:54.941Z,10.23
2023-05-06T01:49:23.453Z,10.27
2023-05-06T01:51:51.435Z,10.03
2023-05-06T01:54:19.104Z,9.30
2023-05-06T01:56:46.836Z,11.20
2023-05-06T01:59:14.260Z,10.70
2023-05-06T02:01:41.697Z,10.07
2023-05-06T02:04:09.112Z,10.27
2023-05-06T02:06:36.482Z,10.23
2023-05-06T02:09:04.298Z,11.23
2023-05-06T02:11:32.071Z,11.47
2023-05-06T02:14:00.460Z,11.63
2023-05-06T02:16:31.503Z,9.50
2023-05-06T02:19:00.270Z,9.87
2023-05-06T02:21:27.942Z,15.27
2023-05-06T02:23:55.476Z,11.43
2023-05-06T02:26:22.824Z,9.53
2023-05-06T02:28:50.200Z,8.97
2023-05-06T02:31:19.920Z,9.07
2023-05-06T02:33:48.290Z,10.50
2023-05-06T02:36:16.937Z,9.50
2023-05-06T02:38:44.448Z,9.37
2023-05-06T02:41:11.800Z,8.63
2023-05-06T02:43:39.518Z,8.27
2023-05-06T02:46:08.513Z,8.67
2023-05-06T02:48:36.904Z,8.47
2023-05-06T02:51:04.964Z,8.50
2023-05-06T02:53:32.288Z,7.73
2023-05-06T02:56:00.051Z,7.80
2023-05-06T02:58:27.383Z,7.10
2023-05-06T03:00:54.762Z,7.67
2023-05-06T03:03:23.365Z,9.80
2023-05-06T03:05:51.062Z,8.53
2023-05-06T03:08:19.305Z,10.07
2023-05-06T03:10:47.646Z,15.27
2023-05-06T03:13:15.415Z,23.33
2023-05-06T03:15:42.893Z,36.33
2023-05-06T03:18:10.942Z,13.47
2023-05-06T03:20:39.442Z,8.33
2023-05-06T03:23:07.707Z,8.40
2023-05-06T03:25:36.167Z,8.30
2023-05-06T03:28:03.511Z,7.40
2023-05-06T03:30:31.260Z,7.00
2023-05-06T03:33:01.679Z,7.37
2023-05-06T03:35:29.851Z,8.13
2023-05-06T03:37:59.170Z,7.97
2023-05-06T03:40:27.018Z,18.57
2023-05-06T03:42:54.774Z,14.07
2023-05-06T03:45:22.234Z,18.57
2023-05-06T03:47:49.910Z,16.67
2023-05-06T03:50:18.855Z,15.67
2023-05-06T03:52:47.018Z,11.93
2023-05-06T03:55:16.259Z,14.63
2023-05-06T03:57:43.658Z,15.47
2023-05-06T04:00:12.225Z,13.50
2023-05-06T04:02:39.784Z,11.70
2023-05-06T04:05:08.055Z,12.03
2023-05-06T04:07:35.823Z,8.00
2023-05-06T04:10:03.500Z,8.67
2023-05-06T04:12:32.758Z,7.63
2023-05-06T04:15:05.228Z,7.60
2023-05-06T04:17:32.894Z,7.60
2023-05-06T04:20:02.466Z,7.80
2023-05-06T04:22:30.893Z,8.07
2023-05-06T04:25:03.016Z,13.00
2023-05-06T04:27:33.394Z,9.37
2023-05-06T04:30:01.391Z,10.20
2023-05-06T04:32:29.014Z,8.90
2023-05-06T04:34:57.327Z,7.50
2023-05-06T04:37:24.671Z,9.30
2023-05-06T04:39:52.126Z,7.70
2023-05-06T04:42:19.488Z,6.90
2023-05-06T04:44:47.141Z,14.47
2023-05-06T04:47:14.560Z,7.33
2023-05-06T04:49:42.610Z,10.40
2023-05-06T04:52:09.981Z,80.33
2023-05-06T04:54:37.357Z,15.43
2023-05-06T04:57:04.669Z,16.50
2023-05-06T04:59:32.333Z,8.53
2023-05-06T05:01:59.697Z,4.40
2023-05-06T05:04:27.312Z,4.03
2023-05-06T05:06:54.609Z,6.87
2023-05-06T05:09:22.137Z,5.37
2023-05-06T05:11:49.585Z,6.23
2023-05-06T05:14:18.024Z,5.80
2023-05-06T05:16:45.476Z,5.87
2023-05-06T05:19:13.566Z,7.33
2023-05-06T05:21:40.864Z,6.10
2023-05-06T05:24:08.256Z,5.00
2023-05-06T05:26:35.909Z,4.83
2023-05-06T05:29:04.624Z,3.70
2023-05-06T05:31:33.450Z,2.75
2023-05-06T05:34:01.879Z,2.47
2023-05-06T05:36:30.414Z,2.42
2023-05-06T05:38:57.832Z,2.47
2023-05-06T05:41:26.766Z,2.22
2023-05-06T05:43:54.130Z,1.88
2023-05-06T05:46:21.504Z,2.13
2023-05-06T05:48:50.276Z,2.67
2023-05-06T05:51:18.628Z,3.38
2023-05-06T05:53:46.071Z,4.68
2023-05-06T05:56:13.396Z,3.47
2023-05-06T05:58:40.761Z,2.90
2023-05-06T06:01:08.064Z,2.90
2023-05-06T06:03:35.506Z,2.50
2023-05-06T06:06:03.233Z,2.70
2023-05-06T06:08:32.428Z,3.42
2023-05-06T06:10:59.909Z,2.78
2023-05-06T06:13:28.904Z,2.80
2023-05-06T06:15:59.726Z,2.90
2023-05-06T06:18:27.032Z,3.00
2023-05-06T06:20:54.435Z,3.08
2023-05-06T06:23:21.790Z,3.17
2023-05-06T06:25:49.288Z,3.17
2023-05-06T06:28:16.645Z,3.35
2023-05-06T06:30:44.033Z,3.85
2023-05-06T06:33:11.385Z,4.18
2023-05-06T06:35:38.720Z,3.63
2023-05-06T06:38:06.092Z,3.05
2023-05-06T06:40:33.814Z,3.10
2023-05-06T06:43:01.321Z,2.58
2023-05-06T06:45:28.650Z,2.70
2023-05-06T06:47:56.037Z,3.40
2023-05-06T06:50:24.414Z,5.03
2023-05-06T06:52:52.722Z,3.10
2023-05-06T06:55:21.214Z,3.03
2023-05-06T06:57:49.214Z,5.32
2023-05-06T07:00:17.308Z,2.95
2023-05-06T07:02:47.007Z,2.70
2023-05-06T07:05:14.873Z,3.42
2023-05-06T07:07:43.644Z,2.28
2023-05-06T07:10:12.285Z,2.33
2023-05-06T07:12:40.615Z,3.25
2023-05-06T07:15:09.224Z,3.80
2023-05-06T07:17:36.818Z,2.85
2023-05-06T07:20:05.023Z,2.45
2023-05-06T07:22:32.397Z,3.00
2023-05-06T07:24:59.681Z,2.60
2023-05-06T07:27:30.431Z,3.90
2023-05-06T07:29:58.856Z,2.10
2023-05-06T07:32:26.235Z,7.90
2023-05-06T07:34:53.594Z,2.10
2023-05-06T07:37:20.992Z,4.82
2023-05-06T07:39:48.489Z,2.45
2023-05-06T07:42:16.350Z,3.88
2023-05-06T07:44:43.627Z,4.50
2023-05-06T07:47:11.116Z,5.30
2023-05-06T07:49:38.918Z,2.00
2023-05-06T07:52:06.365Z,3.55
2023-05-06T07:54:35.135Z,2.20
2023-05-06T07:57:02.746Z,2.03
2023-05-06T07:59:30.123Z,2.53
2023-05-06T08:01:57.407Z,2.00
2023-05-06T08:04:24.821Z,1.92
2023-05-06T08:06:52.306Z,1.80
2023-05-06T08:09:23.018Z,2.10
2023-05-06T08:11:51.495Z,2.53
2023-05-06T08:14:19.080Z,2.15
2023-05-06T08:16:46.504Z,1.73
2023-05-06T08:19:13.954Z,1.88
2023-05-06T08:21:41.407Z,3.47
2023-05-06T08:24:08.765Z,1.90
2023-05-06T08:26:36.440Z,1.73
2023-05-06T08:29:04.039Z,4.03
2023-05-06T08:31:31.689Z,5.07
2023-05-06T08:33:59.076Z,2.50
2023-05-06T08:36:26.706Z,4.15
2023-05-06T08:38:54.484Z,2.33
2023-05-06T08:41:22.353Z,3.83
2023-05-06T08:43:50.802Z,3.65
2023-05-06T08:46:19.208Z,3.05
2023-05-06T08:48:46.687Z,2.88
2023-05-06T08:51:15.522Z,1.90
2023-05-06T08:53:49.728Z,2.00
2023-05-06T08:56:17.349Z,2.20
2023-05-06T08:58:48.205Z,1.80
2023-05-06T09:01:19.077Z,3.08
2023-05-06T09:03:48.206Z,2.30
2023-05-06T09:06:15.528Z,1.65
2023-05-06T09:08:42.884Z,3.50
2023-05-06T09:11:26.820Z,1.67
2023-05-06T09:14:08.668Z,1.20
2023-05-06T09:16:37.264Z,6.22
2023-05-06T09:19:05.803Z,2.42
2023-05-06T09:21:34.214Z,1.23
2023-05-06T09:24:01.802Z,1.73
2023-05-06T09:26:32.754Z,1.20
2023-05-06T09:29:02.387Z,2.17
2023-05-06T09:31:30.848Z,1.90
2023-05-06T09:33:59.495Z,2.42
2023-05-06T09:36:28.367Z,1.40
2023-05-06T09:38:56.670Z,2.88
2023-05-06T09:41:25.766Z,1.75
2023-05-06T09:43:56.838Z,2.20
2023-05-06T09:46:24.882Z,2.20
2023-05-06T09:48:53.108Z,1.42
2023-05-06T09:51:21.126Z,2.75
2023-05-06T09:53:48.909Z,3.10
2023-05-06T09:56:17.088Z,1.98
2023-05-06T09:58:44.528Z,1.52
2023-05-06T10:01:25.038Z,2.33
2023-05-06T10:03:57.334Z,1.70
2023-05-06T10:06:25.591Z,2.90
2023-05-06T10:08:54.246Z,2.33
2023-05-06T10:11:23.113Z,1.30
2023-05-06T10:13:51.511Z,2.17
2023-05-06T10:16:19.540Z,2.08
2023-05-06T10:18:47.428Z,2.08
2023-05-06T10:21:17.713Z,1.92
2023-05-06T10:23:50.993Z,2.78
2023-05-06T10:26:21.113Z,2.53
2023-05-06T10:28:52.912Z,2.05
2023-05-06T10:31:20.420Z,2.63
2023-05-06T10:33:49.609Z,1.48
2023-05-06T10:36:22.872Z,1.55
2023-05-06T10:38:55.038Z,1.35
2023-05-06T10:41:23.083Z,3.22
2023-05-06T10:43:56.968Z,1.75
2023-05-06T10:46:26.389Z,1.42
2023-05-06T10:49:11.047Z,1.45
2023-05-06T10:51:42.215Z,1.77
2023-05-06T10:54:12.611Z,1.30
2023-05-06T10:56:41.144Z,1.00
2023-05-06T10:59:08.434Z,2.65
2023-05-06T11:01:37.005Z,3.42
2023-05-06T11:04:11.930Z,1.58
2023-05-06T11:06:39.233Z,1.95
2023-05-06T11:09:07.383Z,0.93
2023-05-06T11:11:53.287Z,2.58
2023-05-06T11:14:47.040Z,3.00
2023-05-06T11:17:30.920Z,3.55
2023-05-06T11:20:30.778Z,1.30
2023-05-06T11:22:58.026Z,2.45
2023-05-06T11:25:41.673Z,3.30
2023-05-06T11:28:12.616Z,2.05
2023-05-06T11:30:41.962Z,1.13
2023-05-06T11:33:10.349Z,1.30
2023-05-06T11:35:38.042Z,1.00
2023-05-06T11:38:06.159Z,2.65
2023-05-06T11:40:33.742Z,1.88
2023-05-06T11:43:11.103Z,1.40
2023-05-06T11:45:45.283Z,1.42
2023-05-06T11:48:15.959Z,2.10
2023-05-06T11:50:49.821Z,5.72
2023-05-06T11:53:21.544Z,3.08
2023-05-06T11:55:49.176Z,1.10
2023-05-06T11:58:17.335Z,1.40
2023-05-06T12:00:54.076Z,2.15
2023-05-06T12:03:22.234Z,2.15
2023-05-06T12:05:50.054Z,2.70
2023-05-06T12:08:26.525Z,1.30
2023-05-06T12:10:56.659Z,6.55
2023-05-06T12:13:24.336Z,2.10
2023-05-06T12:15:52.367Z,1.15
2023-05-06T12:18:20.133Z,1.20
2023-05-06T12:20:47.544Z,2.30
2023-05-06T12:23:16.030Z,1.08
2023-05-06T12:25:49.190Z,1.30
2023-05-06T12:28:17.115Z,1.20
2023-05-06T12:30:44.676Z,1.65
2023-05-06T12:33:12.419Z,1.92
2023-05-06T12:35:40.408Z,1.00
2023-05-06T12:38:14.922Z,2.58
2023-05-06T12:40:42.647Z,1.48
2023-05-06T12:43:10.591Z,2.67
2023-05-06T12:45:41.239Z,2.95
2023-05-06T12:48:16.915Z,1.55
2023-05-06T12:50:46.638Z,1.67
2023-05-06T12:53:31.020Z,2.17
2023-05-06T12:55:58.314Z,3.42
2023-05-06T12:58:26.107Z,2.83
2023-05-06T13:00:54.107Z,2.30
2023-05-06T13:03:21.720Z,1.48
2023-05-06T13:05:50.499Z,1.20
2023-05-06T13:08:17.953Z,1.30
2023-05-06T13:10:45.964Z,1.20
2023-05-06T13:13:13.348Z,2.35
2023-05-06T13:15:40.906Z,1.48
2023-05-06T13:18:18.879Z,3.60
2023-05-06T13:20:46.680Z,1.30
2023-05-06T13:23:14.152Z,1.98
2023-05-06T13:26:06.969Z,3.15
2023-05-06T13:28:36.923Z,1.10
2023-05-06T13:31:06.563Z,1.10
2023-05-06T13:33:36.139Z,1.58
2023-05-06T13:36:20.536Z,2.70
2023-05-06T13:38:53.031Z,1.48
2023-05-06T13:41:31.689Z,2.25
2023-05-06T13:44:00.971Z,1.98
2023-05-06T13:46:28.482Z,2.00
2023-05-06T13:48:55.820Z,1.40
2023-05-06T13:51:24.355Z,2.08
2023-05-06T13:53:51.914Z,1.17
2023-05-06T13:56:19.248Z,3.28
2023-05-06T13:58:46.604Z,2.05
2023-05-06T14:01:14.347Z,2.40
2023-05-06T14:03:41.769Z,3.08
2023-05-06T14:06:09.426Z,2.22
2023-05-06T14:08:36.689Z,4.65
2023-05-06T14:11:04.250Z,1.45
2023-05-06T14:13:32.214Z,1.40
2023-05-06T14:16:00.182Z,2.25
2023-05-06T14:18:28.178Z,1.33
2023-05-06T14:20:56.438Z,1.63
2023-05-06T14:23:23.840Z,0.93
2023-05-06T14:25:51.298Z,2.42
2023-05-06T14:28:18.696Z,3.22
2023-05-06T14:30:46.013Z,1.25
2023-05-06T14:33:15.459Z,1.98
2023-05-06T14:35:43.265Z,4.03
2023-05-06T14:38:11.235Z,1.83
2023-05-06T14:40:39.021Z,1.20
2023-05-06T14:43:07.667Z,1.20
2023-05-06T14:45:35.199Z,1.83
2023-05-06T14:48:02.742Z,1.83
2023-05-06T14:50:31.531Z,2.53
2023-05-06T14:52:58.832Z,2.83
2023-05-06T14:55:26.210Z,2.83
2023-05-06T14:57:53.519Z,0.95
2023-05-06T15:00:21.600Z,1.00
2023-05-06T15:02:49.482Z,2.33
2023-05-06T15:05:17.146Z,2.30
2023-05-06T15:07:44.470Z,2.17
2023-05-06T15:10:11.803Z,1.30
2023-05-06T15:12:39.187Z,1.63
2023-05-06T15:15:06.958Z,2.53
2023-05-06T15:17:34.728Z,2.78
2023-05-06T15:20:02.232Z,2.05
2023-05-06T15:22:29.508Z,1.42
2023-05-06T15:24:56.920Z,1.63
2023-05-06T15:27:24.383Z,1.23
2023-05-06T15:29:51.873Z,1.33
2023-05-06T15:32:19.138Z,1.90
2023-05-06T15:34:46.398Z,1.60
2023-05-06T15:37:15.932Z,1.10
2023-05-06T15:39:43.232Z,3.05
2023-05-06T15:42:11.299Z,2.08
2023-05-06T15:44:38.728Z,2.80
2023-05-06T15:47:06.348Z,1.27
2023-05-06T15:49:52.119Z,1.80
2023-05-06T15:52:21.253Z,4.35
2023-05-06T15:54:49.872Z,1.65
2023-05-06T15:57:18.598Z,2.17
2023-05-06T15:59:46.043Z,1.55
2023-05-06T16:02:26.756Z,2.38
2023-05-06T16:04:55.530Z,3.10
2023-05-06T16:07:23.148Z,2.85
2023-05-06T16:09:50.822Z,1.63
2023-05-06T16:12:18.182Z,2.25
2023-05-06T16:14:45.573Z,2.97
2023-05-06T16:17:12.900Z,1.73
2023-05-06T16:19:40.319Z,2.80
2023-05-06T16:22:07.594Z,2.70
2023-05-06T16:24:34.943Z,1.48
2023-05-06T16:27:02.596Z,1.20
2023-05-06T16:29:29.863Z,1.38
2023-05-06T16:31:57.443Z,1.52
2023-05-06T16:34:24.843Z,1.38
2023-05-06T16:36:52.551Z,1.52
2023-05-06T16:39:19.826Z,2.00
2023-05-06T16:41:47.392Z,1.80
2023-05-06T16:44:14.637Z,1.10
2023-05-06T16:46:42.085Z,2.53
2023-05-06T16:49:09.611Z,1.25
2023-05-06T16:51:37.036Z,1.20
2023-05-06T16:54:04.464Z,1.55
2023-05-06T16:56:43.921Z,2.95
2023-05-06T16:59:15.826Z,2.03
2023-05-06T17:01:43.280Z,2.03
2023-05-06T17:04:11.024Z,2.10
2023-05-06T17:06:38.405Z,1.70
2023-05-06T17:09:05.844Z,1.58
2023-05-06T17:11:33.104Z,1.40
2023-05-06T17:14:00.556Z,1.75
2023-05-06T17:16:38.638Z,1.80
2023-05-06T17:19:06.507Z,1.48
2023-05-06T17:21:34.065Z,2.47
2023-05-06T17:24:01.652Z,1.63
2023-05-06T17:26:32.158Z,1.98
2023-05-06T17:29:00.141Z,5.07
2023-05-06T17:31:28.231Z,4.80
2023-05-06T17:33:56.541Z,2.50
2023-05-06T17:36:24.169Z,4.28
2023-05-06T17:39:02.064Z,1.50
2023-05-06T17:41:29.773Z,2.25
2023-05-06T17:43:57.511Z,21.45
2023-05-06T17:46:25.241Z,5.88
2023-05-06T17:48:52.719Z,2.00
2023-05-06T17:51:20.092Z,2.53
2023-05-06T17:53:48.325Z,1.40
2023-05-06T17:56:16.628Z,4.78
2023-05-06T17:58:43.996Z,2.63
2023-05-06T18:01:12.485Z,2.50
2023-05-06T18:06:46.759Z,2.55
2023-05-06T18:09:15.307Z,4.85
2023-05-06T18:11:58.026Z,1.73
2023-05-06T18:14:28.096Z,1.85
2023-05-06T18:16:57.160Z,2.53
2023-05-06T18:19:24.482Z,2.38
2023-05-06T18:21:51.848Z,2.78
2023-05-06T18:24:20.062Z,3.30
2023-05-06T18:26:48.636Z,4.63
2023-05-06T18:29:17.204Z,2.88
2023-05-06T18:31:44.899Z,2.63
2023-05-06T18:34:12.662Z,2.03
2023-05-06T18:36:40.080Z,2.95
2023-05-06T18:39:08.371Z,1.63
2023-05-06T18:41:37.135Z,2.17
2023-05-06T18:44:06.305Z,2.85
2023-05-06T18:46:34.094Z,1.80
2023-05-06T18:49:01.539Z,2.10
2023-05-06T18:51:29.278Z,1.80
2023-05-06T18:53:57.036Z,2.38
2023-05-06T18:56:25.516Z,1.77
2023-05-06T18:58:53.794Z,2.60
2023-05-06T19:01:22.344Z,3.00
2023-05-06T19:03:50.483Z,2.05
2023-05-06T19:06:17.934Z,2.85
2023-05-06T19:08:48.430Z,3.60
2023-05-06T19:11:20.931Z,3.35
2023-05-06T19:13:49.760Z,1.90
2023-05-06T19:16:18.305Z,2.10
2023-05-06T19:18:45.878Z,3.30
2023-05-06T19:21:13.610Z,3.85
2023-05-06T19:23:41.011Z,2.30
2023-05-06T19:26:11.336Z,2.53
2023-05-06T19:28:40.848Z,2.47
2023-05-06T19:31:12.175Z,2.75
2023-05-06T19:33:39.940Z,3.10
2023-05-06T19:36:08.608Z,3.58
2023-05-06T19:38:35.960Z,4.45
2023-05-06T19:41:03.324Z,3.92
2023-05-06T19:43:31.368Z,3.63
2023-05-06T19:46:00.008Z,3.85
2023-05-06T19:48:31.634Z,2.15
2023-05-06T19:51:00.816Z,3.40
2023-05-06T19:53:28.474Z,4.43
2023-05-06T19:55:56.208Z,3.42
2023-05-06T19:58:23.486Z,2.40
2023-05-06T20:00:50.894Z,5.13
2023-05-06T20:03:19.422Z,3.50
2023-05-06T20:05:47.871Z,6.15
2023-05-06T20:08:16.108Z,12.25
2023-05-06T20:10:43.862Z,6.40
2023-05-06T20:13:12.044Z,5.88
2023-05-06T20:15:39.493Z,8.27
2023-05-06T20:18:07.486Z,4.68
2023-05-06T20:20:36.181Z,7.28
2023-05-06T20:23:04.028Z,4.28
2023-05-06T20:25:31.329Z,3.08
2023-05-06T20:27:59.319Z,2.60
2023-05-06T20:30:27.474Z,8.85
2023-05-06T20:32:54.862Z,4.15
2023-05-06T20:35:22.271Z,4.78
2023-05-06T20:37:50.424Z,15.18
2023-05-06T20:40:19.300Z,4.93
2023-05-06T20:42:48.238Z,5.32
2023-05-06T20:45:16.084Z,8.80
2023-05-06T20:47:45.775Z,6.70
2023-05-06T20:50:18.277Z,3.20
2023-05-06T20:52:47.565Z,4.82
2023-05-06T20:55:16.062Z,2.72
2023-05-06T20:57:46.484Z,3.08
2023-05-06T21:00:14.791Z,3.60
2023-05-06T21:02:42.563Z,3.72
2023-05-06T21:05:10.592Z,2.72
2023-05-06T21:07:39.798Z,3.47
2023-05-06T21:10:07.785Z,3.22
2023-05-06T21:12:35.136Z,4.10
2023-05-06T21:15:02.997Z,8.00
2023-05-06T21:17:30.576Z,9.02
2023-05-06T21:19:57.914Z,8.77
2023-05-06T21:22:25.352Z,16.00
2023-05-06T21:24:52.725Z,21.25
2023-05-06T21:27:20.071Z,24.02
2023-05-06T21:29:47.420Z,22.90
2023-05-06T21:32:14.932Z,15.13
2023-05-06T21:34:42.324Z,7.80
2023-05-06T21:37:09.654Z,4.88
2023-05-06T21:39:37.142Z,9.45
2023-05-06T21:42:04.738Z,5.00
2023-05-06T21:44:32.132Z,4.80
2023-05-06T21:46:59.769Z,3.45
2023-05-06T21:49:27.084Z,6.88
2023-05-06T21:51:54.346Z,5.57
2023-05-06T21:54:21.721Z,6.00
2023-05-06T21:56:50.418Z,6.72
2023-05-06T21:59:19.691Z,5.07
2023-05-06T22:01:47.224Z,8.93
2023-05-06T22:04:16.854Z,4.38
2023-05-06T22:06:44.283Z,16.33
2023-05-06T22:09:12.061Z,11.57
2023-05-06T22:11:39.472Z,9.18
2023-05-06T22:14:07.066Z,8.73
2023-05-06T22:16:35.825Z,4.20
2023-05-06T22:19:05.704Z,3.87
2023-05-06T22:21:34.602Z,3.33
2023-05-06T22:24:02.122Z,3.70
2023-05-06T22:26:29.996Z,3.40
2023-05-06T22:28:57.348Z,6.57
2023-05-06T22:31:25.011Z,3.60
2023-05-06T22:33:55.720Z,3.33
2023-05-06T22:36:23.124Z,4.63
2023-05-06T22:38:50.543Z,3.23
2023-05-06T22:41:18.565Z,6.30
2023-05-06T22:43:46.417Z,3.40
2023-05-06T22:46:13.737Z,3.43
2023-05-06T22:48:41.179Z,3.83
2023-05-06T22:51:08.530Z,3.87
2023-05-06T22:53:35.940Z,3.80
2023-05-06T22:56:03.234Z,3.60
2023-05-06T22:58:31.591Z,3.73
2023-05-06T23:00:59.140Z,3.53
2023-05-06T23:03:26.674Z,3.97
2023-05-06T23:05:54.027Z,10.27
2023-05-06T23:08:21.628Z,6.30
2023-05-06T23:10:48.961Z,5.40
2023-05-06T23:13:16.269Z,6.57
2023-05-06T23:15:44.056Z,4.97
2023-05-06T23:18:11.682Z,5.27
2023-05-06T23:20:39.399Z,6.53
2023-05-06T23:23:10.596Z,6.60
2023-05-06T23:25:37.946Z,6.07
2023-05-06T23:28:05.598Z,4.23
2023-05-06T23:30:33.802Z,4.40
2023-05-06T23:33:01.416Z,3.13
2023-05-06T23:35:29.083Z,3.50
2023-05-06T23:37:56.597Z,4.90
2023-05-06T23:40:23.893Z,3.10
2023-05-06T23:42:51.150Z,7.30
2023-05-06T23:45:19.831Z,5.03
2023-05-06T23:47:47.533Z,4.83
2023-05-06T23:50:15.144Z,4.80
2023-05-06T23:52:42.621Z,8.80
2023-05-06T23:55:10.296Z,4.63
2023-05-06T23:57:37.952Z,4.93
